Meteo Giornale » Osservazioni meteo Francia » Bale-Mulhouse

ore: 10:30 - Osservazioni Meteo Bale-Mulhouse
Lat. 47° 36' N Lon. 7° 31' E Alt. 270 metri s.l.m.

sereno

19 °C

Sereno

Temp. 24 Ore

12 °C

27 °C

Nord

3.7 Km/h

Dew point 12 °C

Umidità 63 %

Visibilità  10 Km

Il sole sorge alle ore 06:49

Il sole tramonta alle ore 20:09

Data e Ora Cielo e Fenomeni T °C DP °C Um. % Pres. hPa Vis. km Vento km/h
Oggi h: 10:30 sereno Sereno 19 12 63 1022 10 N 3.7
Oggi h: 10:00 sereno Sereno 18 11 63 1022 10 N 5.5
Oggi h: 09:30 sereno Sereno 18 12 67 1021 10 S/SE 7.4
Oggi h: 09:00 sereno Sereno 17 12 72 1021 10 S/SE 9.3
Oggi h: 08:30 sereno Sereno 15 12 82 1021 10 S 7.4
Oggi h: 08:00 sereno Sereno 15 12 82 1022 10 N 5.5
Oggi h: 07:30 sereno Sereno 14 12 87 1021 10 N 3.7
Oggi h: 07:00 sereno Sereno 12 11 93 1021 10 S 7.4
Oggi h: 06:30 sereno Sereno 12 11 93 1021 10 S 7.4
Oggi h: 06:00 sereno Sereno 12 10 87 1021 10 N 5.5
Oggi h: 05:30 sereno Sereno 12 11 93 1021 10 N 3.7
Oggi h: 05:00 sereno Sereno 13 11 87 1021 10 N 3.7
Oggi h: 04:30 sereno Sereno 12 10 87 1021 10 N 3.7
Oggi h: 04:00 sereno Sereno 13 11 87 1021 10 N 5.5
Oggi h: 03:30 sereno Sereno 14 11 82 1021 10 S 7.4
Oggi h: 03:00 sereno Sereno 13 12 93 1021 10 N 0
Oggi h: 02:30 sereno Sereno 13 12 93 1021 10 N 3.7
Oggi h: 02:00 sereno Sereno 13 12 93 1021 10 N 3.7
Oggi h: 01:30 sereno Sereno 14 12 87 1021 10 N 3.7
Oggi h: 01:00 sereno Sereno 14 12 87 1021 10 N 5.5
Oggi h: 00:30 sereno Sereno 15 12 82 1021 10 N 3.7
Oggi h: 00:00 sereno Sereno 15 12 82 1021 10 N 3.7
Ieri h: 23:30 sereno Sereno 16 12 77 1021 10 N 3.7
Ieri h: 23:00 sereno Sereno 17 12 72 1021 10 N 5.5
Ieri h: 22:30 sereno Sereno 17 12 72 1021 10 N 3.7
Ieri h: 22:00 sereno Sereno 18 13 72 1021 10 O/SO 7.4
Ieri h: 21:30 sereno Sereno 18 12 67 1021 10 N 3.7
Ieri h: 21:00 sereno Sereno 19 12 63 1021 10 N 3.7
Ieri h: 20:30 sereno Sereno 20 12 59 1021 10 N 5.5
Ieri h: 20:00 sereno Sereno 23 10 43 1020 10 N 3.7
Ieri h: 19:30 sereno Sereno 25 10 38 1020 10 O 7.4
Ieri h: 19:00 sereno Sereno 26 9 34 1020 10 NO 9.3
Ieri h: 18:30 sereno Sereno 26 9 34 1020 10 O/NO 9.3
Ieri h: 18:00 sereno Sereno 27 9 32 1021 10 O 11.1
Ieri h: 17:30 sereno Sereno 26 8 31 1021 10 O/NO 13
Ieri h: 17:00 sereno Sereno 26 8 31 1021 10 O 14.8
Ieri h: 16:30 sereno Sereno 27 9 32 1021 10 O/NO 9.3
Ieri h: 16:00 sereno Sereno 26 9 34 1021 10 O 14.8
Ieri h: 15:30 sereno Sereno 26 10 36 1021 10 NO 11.1
Ieri h: 15:00 sereno Sereno 26 9 34 1021 10 O/NO 11.1
Ieri h: 14:30 sereno Sereno 26 8 31 1021 10 NO 7.4
Ieri h: 14:00 sereno Sereno 26 9 34 1022 10 SO 11.1
Ieri h: 13:30 sereno Sereno 26 9 34 1022 10 N 9.3
Ieri h: 13:00 nuvoloso Nuvoloso 26 9 34 1022 10 N/NO 7.4
Ieri h: 12:30 poco_nuvoloso Poco Nuvoloso 25 10 38 1022 10 O/SO 7.4
Ieri h: 12:00 poco_nuvoloso Poco Nuvoloso 24 12 47 1022 10 NO 9.3